createdAt,value
2022-09-15T00:00:36.574Z,39.48
2022-09-15T00:01:36.633Z,45.76
2022-09-15T00:02:36.573Z,46.25
2022-09-15T00:03:36.535Z,41.57
2022-09-15T00:04:36.529Z,42.22
2022-09-15T00:05:36.520Z,45.60
2022-09-15T00:06:36.536Z,42.86
2022-09-15T00:07:36.500Z,41.25
2022-09-15T00:08:36.489Z,45.12
2022-09-15T00:09:36.480Z,46.08
2022-09-15T00:10:36.470Z,42.22
2022-09-15T00:11:36.498Z,43.67
2022-09-15T00:12:36.445Z,44.79
2022-09-15T00:13:36.442Z,43.18
2022-09-15T00:14:36.434Z,42.70
2022-09-15T00:15:36.483Z,45.28
2022-09-15T00:16:36.477Z,43.51
2022-09-15T00:17:36.409Z,42.70
2022-09-15T00:18:36.388Z,45.44
2022-09-15T00:19:36.388Z,43.18
2022-09-15T00:20:36.387Z,40.44
2022-09-15T00:21:36.360Z,46.41
2022-09-15T00:22:36.358Z,43.51
2022-09-15T00:23:36.337Z,41.73
2022-09-15T00:24:36.332Z,42.06
2022-09-15T00:25:36.311Z,47.21
2022-09-15T00:26:36.305Z,47.21
2022-09-15T00:27:36.307Z,43.99
2022-09-15T00:28:36.283Z,41.09
2022-09-15T00:29:36.273Z,46.08
2022-09-15T00:30:36.300Z,36.42
2022-09-15T00:31:36.251Z,36.58
2022-09-15T00:32:36.265Z,42.86
2022-09-15T00:33:36.229Z,40.44
2022-09-15T00:34:36.223Z,36.42
2022-09-15T00:35:36.210Z,41.25
2022-09-15T00:36:36.202Z,44.31
2022-09-15T00:37:36.218Z,43.02
2022-09-15T00:38:36.180Z,46.08
2022-09-15T00:39:36.170Z,42.06
2022-09-15T00:40:36.163Z,44.15
2022-09-15T00:41:36.309Z,42.22
2022-09-15T00:42:36.143Z,38.99
2022-09-15T00:43:36.146Z,44.47
2022-09-15T00:44:36.122Z,42.38
2022-09-15T00:45:36.133Z,44.79
2022-09-15T00:46:36.104Z,46.25
2022-09-15T00:47:36.091Z,46.08
2022-09-15T00:48:36.095Z,40.28
2022-09-15T00:49:36.062Z,44.63
2022-09-15T00:50:36.053Z,44.31
2022-09-15T00:51:36.055Z,41.57
2022-09-15T00:52:36.041Z,46.89
2022-09-15T00:53:36.057Z,45.12
2022-09-15T00:54:36.014Z,43.83
2022-09-15T00:55:36.017Z,44.31
2022-09-15T00:56:35.995Z,43.83
2022-09-15T00:57:36.000Z,40.12
2022-09-15T00:58:35.997Z,43.83
2022-09-15T00:59:35.964Z,44.79
2022-09-15T01:00:35.957Z,43.67
2022-09-15T01:01:36.002Z,43.34
2022-09-15T01:02:36.079Z,43.99
2022-09-15T01:03:35.928Z,48.98
2022-09-15T01:04:35.928Z,50.60
2022-09-15T01:05:35.899Z,43.67
2022-09-15T01:06:35.895Z,47.05
2022-09-15T01:07:35.880Z,41.09
2022-09-15T01:08:35.875Z,45.60
2022-09-15T01:09:35.876Z,39.96
2022-09-15T01:10:35.858Z,38.99
2022-09-15T01:11:35.842Z,40.61
2022-09-15T01:12:35.833Z,45.76
2022-09-15T01:13:35.820Z,42.86
2022-09-15T01:14:35.853Z,40.93
2022-09-15T01:15:35.801Z,43.83
2022-09-15T01:16:35.836Z,49.95
2022-09-15T01:17:35.779Z,43.99
2022-09-15T01:18:35.767Z,40.44
2022-09-15T01:19:35.787Z,47.53
2022-09-15T01:20:35.746Z,47.53
2022-09-15T01:21:35.740Z,46.41
2022-09-15T01:22:35.727Z,48.66
2022-09-15T01:23:35.716Z,46.08
2022-09-15T01:24:35.730Z,40.28
2022-09-15T01:25:35.715Z,42.22
2022-09-15T01:26:35.693Z,48.66
2022-09-15T01:27:42.577Z,38.99
2022-09-15T01:28:37.666Z,37.22
2022-09-15T01:29:35.668Z,43.51
2022-09-15T01:30:35.657Z,43.02
2022-09-15T01:31:35.678Z,47.53
2022-09-15T01:32:35.630Z,41.73
2022-09-15T01:33:35.612Z,38.35
2022-09-15T01:34:35.625Z,43.18
2022-09-15T01:35:35.607Z,45.76
2022-09-15T01:36:35.580Z,44.63
2022-09-15T01:37:35.578Z,40.12
2022-09-15T01:38:35.570Z,41.57
2022-09-15T01:39:35.569Z,40.12
2022-09-15T01:40:35.554Z,42.22
2022-09-15T01:41:35.533Z,43.83
2022-09-15T01:42:35.519Z,43.34
2022-09-15T01:43:35.508Z,42.22
2022-09-15T01:44:35.516Z,48.50
2022-09-15T01:45:35.560Z,45.76
2022-09-15T01:46:35.476Z,46.25
2022-09-15T01:47:35.467Z,50.11
2022-09-15T01:48:35.455Z,48.02
2022-09-15T01:49:35.497Z,48.18
2022-09-15T01:50:35.451Z,45.44
2022-09-15T01:51:35.425Z,44.15
2022-09-15T01:52:35.414Z,48.98
2022-09-15T01:53:35.406Z,44.96
2022-09-15T01:54:35.406Z,39.80
2022-09-15T01:55:35.398Z,44.31
2022-09-15T01:56:35.375Z,47.05
2022-09-15T01:57:35.358Z,47.21
2022-09-15T01:58:35.353Z,47.86
2022-09-15T01:59:35.353Z,48.18
2022-09-15T02:00:35.342Z,47.21
2022-09-15T02:01:35.351Z,44.96
2022-09-15T02:02:35.348Z,45.92
2022-09-15T02:03:35.291Z,48.82
2022-09-15T02:04:35.303Z,40.44
2022-09-15T02:05:35.301Z,43.18
2022-09-15T02:06:35.265Z,49.47
2022-09-15T02:07:35.255Z,46.41
2022-09-15T02:08:35.247Z,46.73
2022-09-15T02:09:35.251Z,49.15
2022-09-15T02:10:35.238Z,42.86
2022-09-15T02:11:35.216Z,46.57
2022-09-15T02:12:35.201Z,45.12
2022-09-15T02:13:35.188Z,49.79
2022-09-15T02:14:35.198Z,45.28
2022-09-15T02:15:35.203Z,48.02
2022-09-15T02:16:35.267Z,48.02
2022-09-15T02:17:35.174Z,46.25
2022-09-15T02:18:35.140Z,45.76
2022-09-15T02:19:35.124Z,44.31
2022-09-15T02:20:35.140Z,47.37
2022-09-15T02:21:35.109Z,47.21
2022-09-15T02:22:35.113Z,40.44
2022-09-15T02:23:35.089Z,49.95
2022-09-15T02:24:35.077Z,48.02
2022-09-15T02:25:35.086Z,47.37
2022-09-15T02:26:35.058Z,46.89
2022-09-15T02:27:35.052Z,45.76
2022-09-15T02:28:35.039Z,48.34
2022-09-15T02:29:35.032Z,49.79
2022-09-15T02:30:35.069Z,48.18
2022-09-15T02:31:35.075Z,49.47
2022-09-15T02:32:35.002Z,47.70
2022-09-15T02:33:34.998Z,43.02
2022-09-15T02:34:34.976Z,48.18
2022-09-15T02:35:35.002Z,44.79
2022-09-15T02:36:34.959Z,43.51
2022-09-15T02:37:34.981Z,45.92
2022-09-15T02:38:34.942Z,46.25
2022-09-15T02:39:34.930Z,49.63
2022-09-15T02:40:34.966Z,48.82
2022-09-15T02:41:34.925Z,46.08
2022-09-15T02:42:34.897Z,46.89
2022-09-15T02:43:34.889Z,47.37
2022-09-15T02:44:34.880Z,46.25
2022-09-15T02:45:34.911Z,45.44
2022-09-15T02:46:34.877Z,48.50
2022-09-15T02:47:34.847Z,42.70
2022-09-15T02:48:34.839Z,47.86
2022-09-15T02:49:34.827Z,47.05
2022-09-15T02:50:34.817Z,44.79
2022-09-15T02:51:34.824Z,47.70
2022-09-15T02:52:34.798Z,40.44
2022-09-15T02:53:34.788Z,43.67
2022-09-15T02:54:34.775Z,48.98
2022-09-15T02:55:34.787Z,42.22
2022-09-15T02:56:34.784Z,47.86
2022-09-15T02:57:34.746Z,49.63
2022-09-15T02:58:34.737Z,46.08
2022-09-15T02:59:34.724Z,45.92
2022-09-15T03:00:34.775Z,47.21
2022-09-15T03:01:35.029Z,41.89
2022-09-15T03:02:34.692Z,45.60
2022-09-15T03:03:34.679Z,46.89
2022-09-15T03:04:34.671Z,48.66
2022-09-15T03:05:34.657Z,49.15
2022-09-15T03:06:34.682Z,45.12
2022-09-15T03:07:34.655Z,43.18
2022-09-15T03:08:34.635Z,42.70
2022-09-15T03:09:34.623Z,44.63
2022-09-15T03:10:34.606Z,47.21
2022-09-15T03:11:34.605Z,44.96
2022-09-15T03:12:34.638Z,41.73
2022-09-15T03:13:34.587Z,47.37
2022-09-15T03:14:34.572Z,48.66
2022-09-15T03:15:34.558Z,47.37
2022-09-15T03:16:34.708Z,48.82
2022-09-15T03:17:34.559Z,44.31
2022-09-15T03:18:34.531Z,44.31
2022-09-15T03:19:34.514Z,46.08
2022-09-15T03:20:34.506Z,47.21
2022-09-15T03:21:34.497Z,44.63
2022-09-15T03:22:34.509Z,48.18
2022-09-15T03:23:34.472Z,48.50
2022-09-15T03:24:34.466Z,47.70
2022-09-15T03:25:34.454Z,43.83
2022-09-15T03:26:34.444Z,46.73
2022-09-15T03:27:34.447Z,45.92
2022-09-15T03:28:34.424Z,43.51
2022-09-15T03:29:34.412Z,48.98
2022-09-15T03:30:34.409Z,44.47
2022-09-15T03:31:34.418Z,48.34
2022-09-15T03:32:34.398Z,48.50
2022-09-15T03:33:34.372Z,47.37
2022-09-15T03:34:34.368Z,46.89
2022-09-15T03:35:34.352Z,49.31
2022-09-15T03:36:34.346Z,49.47
2022-09-15T03:37:34.349Z,49.31
2022-09-15T03:38:34.323Z,49.15
2022-09-15T03:39:34.312Z,50.43
2022-09-15T03:40:34.334Z,50.92
2022-09-15T03:41:34.298Z,49.63
2022-09-15T03:42:34.325Z,43.83
2022-09-15T03:43:34.273Z,48.66
2022-09-15T03:44:34.271Z,46.08
2022-09-15T03:45:34.281Z,49.79
2022-09-15T03:46:34.248Z,47.05
2022-09-15T03:47:34.304Z,45.76
2022-09-15T03:48:34.227Z,46.41
2022-09-15T03:49:34.212Z,51.08
2022-09-15T03:50:34.200Z,47.21
2022-09-15T03:51:34.193Z,49.79
2022-09-15T03:52:34.179Z,50.92
2022-09-15T03:53:34.190Z,48.98
2022-09-15T03:54:34.160Z,47.70
2022-09-15T03:55:34.152Z,50.43
2022-09-15T03:56:34.140Z,51.56
2022-09-15T03:57:34.133Z,49.47
2022-09-15T03:58:34.132Z,46.08
2022-09-15T03:59:35.113Z,46.41
2022-09-15T04:00:34.154Z,48.18
2022-09-15T04:01:34.148Z,48.18
2022-09-15T04:02:34.086Z,47.05
2022-09-15T04:03:35.730Z,51.08
2022-09-15T04:04:34.065Z,48.98
2022-09-15T04:05:34.054Z,49.63
2022-09-15T04:06:34.045Z,49.63
2022-09-15T04:07:34.037Z,50.60
2022-09-15T04:08:34.059Z,50.60
2022-09-15T04:09:34.016Z,48.98
2022-09-15T04:10:34.008Z,50.92
2022-09-15T04:11:33.996Z,48.98
2022-09-15T04:12:33.987Z,46.41
2022-09-15T04:13:34.004Z,43.51
2022-09-15T04:14:33.965Z,49.79
2022-09-15T04:15:33.953Z,41.89
2022-09-15T04:16:34.032Z,43.34
2022-09-15T04:17:33.931Z,48.34
2022-09-15T04:18:33.921Z,49.47
2022-09-15T04:19:33.926Z,45.28
2022-09-15T04:20:33.898Z,44.31
2022-09-15T04:21:33.888Z,48.66
2022-09-15T04:22:33.880Z,48.34
2022-09-15T04:23:33.868Z,47.70
2022-09-15T04:24:33.875Z,46.57
2022-09-15T04:25:33.846Z,47.37
2022-09-15T04:26:33.843Z,50.43
2022-09-15T04:27:33.829Z,46.41
2022-09-15T04:28:33.821Z,49.79
2022-09-15T04:29:33.822Z,50.11
2022-09-15T04:30:33.797Z,49.63
2022-09-15T04:31:33.892Z,48.98
2022-09-15T04:32:33.773Z,50.27
2022-09-15T04:33:33.763Z,43.18
2022-09-15T04:34:36.981Z,49.31
2022-09-15T04:35:34.741Z,53.17
2022-09-15T04:36:33.730Z,53.01
2022-09-15T04:37:33.723Z,52.21
2022-09-15T04:38:33.708Z,45.44
2022-09-15T04:39:33.742Z,51.24
2022-09-15T04:40:33.749Z,46.25
2022-09-15T04:41:33.676Z,47.70
2022-09-15T04:42:33.670Z,50.92
2022-09-15T04:43:33.661Z,49.79
2022-09-15T04:44:33.689Z,53.66
2022-09-15T04:45:33.633Z,47.70
2022-09-15T04:46:33.694Z,46.41
2022-09-15T04:47:33.613Z,50.76
2022-09-15T04:48:33.605Z,51.08
2022-09-15T04:49:33.594Z,49.79
2022-09-15T04:50:33.600Z,53.01
2022-09-15T04:51:33.577Z,47.53
2022-09-15T04:52:33.579Z,48.66
2022-09-15T04:53:33.550Z,47.21
2022-09-15T04:54:33.545Z,46.89
2022-09-15T04:55:33.550Z,44.47
2022-09-15T04:56:33.525Z,44.79
2022-09-15T04:57:33.515Z,49.47
2022-09-15T04:58:33.508Z,51.08
2022-09-15T04:59:33.501Z,48.98
2022-09-15T05:00:33.599Z,44.79
2022-09-15T05:01:33.523Z,47.37
2022-09-15T05:02:33.532Z,48.34
2022-09-15T05:03:33.451Z,48.98
2022-09-15T05:04:33.442Z,49.47
2022-09-15T05:05:33.462Z,48.18
2022-09-15T05:06:33.422Z,45.44
2022-09-15T05:07:33.413Z,48.98
2022-09-15T05:08:33.401Z,47.86
2022-09-15T05:09:33.391Z,50.27
2022-09-15T05:10:33.382Z,49.63
2022-09-15T05:11:33.383Z,46.41
2022-09-15T05:12:33.356Z,50.43
2022-09-15T05:13:33.353Z,47.05
2022-09-15T05:14:33.352Z,49.63
2022-09-15T05:15:33.326Z,50.11
2022-09-15T05:16:33.393Z,51.56
2022-09-15T05:17:33.309Z,48.18
2022-09-15T05:18:33.301Z,48.34
2022-09-15T05:19:33.288Z,47.05
2022-09-15T05:20:33.278Z,46.89
2022-09-15T05:21:33.289Z,49.63
2022-09-15T05:22:33.252Z,48.34
2022-09-15T05:23:33.246Z,47.53
2022-09-15T05:24:33.236Z,46.89
2022-09-15T05:25:33.223Z,50.92
2022-09-15T05:26:33.237Z,48.98
2022-09-15T05:27:33.201Z,48.34
2022-09-15T05:28:33.192Z,49.15
2022-09-15T05:29:33.188Z,48.98
2022-09-15T05:30:38.587Z,51.24
2022-09-15T05:31:35.333Z,49.95
2022-09-15T05:32:33.184Z,49.31
2022-09-15T05:33:33.150Z,46.08
2022-09-15T05:34:33.138Z,44.31
2022-09-15T05:35:33.125Z,41.89
2022-09-15T05:36:33.158Z,51.72
2022-09-15T05:37:33.105Z,50.11
2022-09-15T05:38:33.104Z,49.31
2022-09-15T05:39:33.083Z,51.08
2022-09-15T05:40:33.104Z,49.47
2022-09-15T05:41:33.092Z,48.98
2022-09-15T05:42:33.073Z,47.37
2022-09-15T05:43:33.040Z,51.56
2022-09-15T05:44:33.032Z,50.27
2022-09-15T05:45:33.025Z,47.86
2022-09-15T05:46:33.058Z,49.63
2022-09-15T05:47:33.017Z,42.86
2022-09-15T05:48:32.989Z,46.41
2022-09-15T05:49:32.980Z,49.63
2022-09-15T05:50:32.971Z,46.25
2022-09-15T05:51:32.968Z,49.31
2022-09-15T05:52:32.970Z,49.31
2022-09-15T05:53:32.956Z,49.63
2022-09-15T05:54:32.927Z,49.79
2022-09-15T05:55:32.926Z,50.43
2022-09-15T05:56:32.913Z,47.21
2022-09-15T05:57:32.932Z,44.79
2022-09-15T05:58:32.892Z,43.83
2022-09-15T05:59:32.878Z,48.50
2022-09-15T06:00:32.873Z,47.37
2022-09-15T06:01:32.904Z,48.66
2022-09-15T06:02:32.929Z,47.21
2022-09-15T06:03:32.883Z,49.47
2022-09-15T06:04:32.838Z,45.60
2022-09-15T06:05:32.819Z,44.15
2022-09-15T06:06:32.812Z,47.86
2022-09-15T06:07:32.815Z,50.11
2022-09-15T06:08:32.810Z,44.31
2022-09-15T06:09:32.783Z,46.89
2022-09-15T06:10:32.774Z,48.18
2022-09-15T06:11:32.768Z,46.41
2022-09-15T06:12:32.747Z,48.66
2022-09-15T06:13:32.754Z,49.95
2022-09-15T06:14:32.730Z,49.79
2022-09-15T06:15:32.722Z,48.02
2022-09-15T06:16:32.732Z,49.79
2022-09-15T06:17:32.697Z,46.89
2022-09-15T06:18:32.714Z,46.25
2022-09-15T06:19:32.681Z,47.37
2022-09-15T06:20:32.668Z,45.92
2022-09-15T06:21:32.662Z,49.47
2022-09-15T06:22:32.646Z,46.41
2022-09-15T06:23:32.666Z,46.57
2022-09-15T06:24:32.642Z,46.57
2022-09-15T06:25:32.619Z,44.31
2022-09-15T06:26:32.610Z,45.12
2022-09-15T06:27:32.600Z,47.86
2022-09-15T06:28:32.633Z,44.96
2022-09-15T06:29:32.590Z,47.70
2022-09-15T06:30:32.573Z,47.37
2022-09-15T06:31:32.594Z,46.41
2022-09-15T06:32:32.546Z,45.92
2022-09-15T06:33:32.538Z,47.21
2022-09-15T06:34:32.542Z,49.79
2022-09-15T06:35:32.515Z,48.98
2022-09-15T06:36:32.506Z,48.18
2022-09-15T06:37:32.495Z,48.82
2022-09-15T06:38:32.490Z,47.86
2022-09-15T06:39:32.489Z,45.28
2022-09-15T06:40:32.544Z,47.05
2022-09-15T06:41:58.510Z,50.11
2022-09-15T06:42:34.443Z,42.38
2022-09-15T06:43:32.427Z,45.28
2022-09-15T06:44:32.434Z,46.41
2022-09-15T06:45:32.410Z,48.98
2022-09-15T06:46:32.439Z,45.28
2022-09-15T06:47:32.386Z,50.92
2022-09-15T06:48:32.390Z,49.47
2022-09-15T06:49:32.398Z,49.31
2022-09-15T06:50:32.356Z,49.31
2022-09-15T06:51:32.349Z,48.98
2022-09-15T06:52:32.337Z,42.54
2022-09-15T06:53:32.332Z,50.11
2022-09-15T06:54:32.365Z,46.25
2022-09-15T06:55:32.303Z,45.60
2022-09-15T06:56:37.102Z,46.41
2022-09-15T06:57:34.288Z,47.21
2022-09-15T06:58:32.278Z,48.50
2022-09-15T06:59:32.267Z,47.37
2022-09-15T07:00:32.270Z,47.37
2022-09-15T07:01:32.268Z,48.98
2022-09-15T07:02:32.439Z,46.25
2022-09-15T07:03:33.302Z,48.98
2022-09-15T07:04:32.222Z,48.82
2022-09-15T07:05:32.229Z,46.73
2022-09-15T07:06:32.196Z,49.31
2022-09-15T07:07:32.188Z,45.28
2022-09-15T07:08:32.173Z,48.34
2022-09-15T07:09:32.164Z,44.79
2022-09-15T07:10:32.201Z,48.66
2022-09-15T07:11:32.143Z,48.02
2022-09-15T07:12:32.131Z,48.50
2022-09-15T07:13:32.122Z,46.89
2022-09-15T07:14:32.107Z,47.05
2022-09-15T07:15:32.142Z,49.63
2022-09-15T07:16:32.172Z,48.02
2022-09-15T07:17:32.099Z,48.98
2022-09-15T07:18:32.073Z,46.89
2022-09-15T07:19:32.060Z,45.92
2022-09-15T07:20:32.067Z,48.82
2022-09-15T07:21:32.055Z,45.60
2022-09-15T07:22:32.024Z,45.92
2022-09-15T07:23:32.014Z,46.89
2022-09-15T07:24:32.004Z,50.76
2022-09-15T07:25:31.998Z,45.92
2022-09-15T07:26:32.001Z,46.73
2022-09-15T07:27:31.991Z,45.60
2022-09-15T07:28:31.968Z,49.95
2022-09-15T07:29:35.878Z,46.89
2022-09-15T07:30:33.950Z,50.11
2022-09-15T07:31:32.013Z,47.70
2022-09-15T07:32:31.930Z,47.53
2022-09-15T07:33:31.915Z,47.86
2022-09-15T07:34:31.907Z,48.66
2022-09-15T07:35:31.894Z,46.25
2022-09-15T07:36:31.939Z,49.79
2022-09-15T07:37:31.875Z,48.50
2022-09-15T07:38:31.964Z,48.50
2022-09-15T07:39:31.852Z,48.50
2022-09-15T07:40:31.897Z,48.02
2022-09-15T07:41:31.833Z,51.08
2022-09-15T07:42:35.263Z,46.41
2022-09-15T07:43:32.806Z,48.50
2022-09-15T07:44:31.797Z,48.34
2022-09-15T07:45:31.848Z,44.31
2022-09-15T07:46:31.810Z,46.89
2022-09-15T07:47:31.782Z,50.11
2022-09-15T07:48:31.760Z,46.57
2022-09-15T07:49:31.750Z,50.76
2022-09-15T07:50:31.741Z,48.98
2022-09-15T07:51:31.727Z,48.82
2022-09-15T07:52:31.755Z,49.79
2022-09-15T07:53:31.704Z,50.92
2022-09-15T07:54:31.698Z,49.47
2022-09-15T07:55:31.678Z,49.95
2022-09-15T07:56:32.680Z,49.79
2022-09-15T07:57:31.708Z,48.82
2022-09-15T07:58:31.657Z,47.21
2022-09-15T07:59:31.650Z,49.15
2022-09-15T08:00:31.716Z,48.18
2022-09-15T08:01:31.719Z,49.95
2022-09-15T08:02:31.621Z,48.98
2022-09-15T08:03:31.630Z,51.08
2022-09-15T08:04:31.595Z,50.11
2022-09-15T08:05:34.772Z,46.41
2022-09-15T08:06:33.709Z,48.50
2022-09-15T08:07:31.563Z,50.11
2022-09-15T08:08:31.567Z,47.37
2022-09-15T08:09:31.548Z,50.60
2022-09-15T08:10:31.530Z,49.31
2022-09-15T08:11:31.523Z,47.53
2022-09-15T08:12:31.511Z,49.95
2022-09-15T08:13:31.541Z,47.53
2022-09-15T08:14:31.488Z,50.76
2022-09-15T08:15:31.473Z,49.63
2022-09-15T08:16:31.540Z,48.66
2022-09-15T08:17:31.462Z,44.79
2022-09-15T08:18:31.481Z,49.79
2022-09-15T08:19:31.434Z,46.41
2022-09-15T08:20:31.436Z,48.02
2022-09-15T08:21:31.415Z,41.73
2022-09-15T08:22:31.405Z,48.98
2022-09-15T08:23:31.397Z,49.63
2022-09-15T08:24:31.399Z,48.66
2022-09-15T08:25:31.375Z,49.79
2022-09-15T08:26:31.362Z,49.47
2022-09-15T08:27:31.354Z,49.31
2022-09-15T08:28:31.342Z,46.73
2022-09-15T08:29:31.349Z,48.98
2022-09-15T08:30:31.317Z,50.43
2022-09-15T08:31:31.376Z,49.95
2022-09-15T08:32:31.297Z,45.60
2022-09-15T08:33:31.293Z,48.34
2022-09-15T08:34:31.297Z,48.34
2022-09-15T08:35:31.281Z,50.11
2022-09-15T08:36:31.263Z,47.21
2022-09-15T08:37:31.259Z,48.82
2022-09-15T08:38:31.242Z,44.63
2022-09-15T08:39:31.266Z,47.70
2022-09-15T08:40:31.263Z,48.50
2022-09-15T08:41:31.215Z,49.79
2022-09-15T08:42:31.206Z,48.02
2022-09-15T08:43:31.221Z,49.47
2022-09-15T08:44:31.209Z,48.98
2022-09-15T08:45:31.170Z,49.31
2022-09-15T08:46:31.208Z,48.66
2022-09-15T08:47:31.149Z,48.50
2022-09-15T08:48:31.141Z,48.66
2022-09-15T08:49:50.666Z,47.21
2022-09-15T08:50:33.159Z,46.89
2022-09-15T08:51:31.115Z,48.98
2022-09-15T08:52:31.105Z,48.98
2022-09-15T08:53:31.098Z,48.66
2022-09-15T08:54:31.088Z,47.70
2022-09-15T08:55:31.090Z,49.63
2022-09-15T08:56:31.067Z,50.43
2022-09-15T08:57:31.054Z,47.86
2022-09-15T08:58:31.045Z,48.66
2022-09-15T08:59:31.034Z,48.50
2022-09-15T09:00:31.036Z,48.66
2022-09-15T09:01:31.073Z,50.11
2022-09-15T09:02:31.047Z,49.79
2022-09-15T09:03:30.999Z,48.18
2022-09-15T09:04:30.984Z,50.60
2022-09-15T09:05:31.011Z,48.82
2022-09-15T09:06:30.978Z,46.25
2022-09-15T09:07:30.947Z,48.82
2022-09-15T09:08:30.950Z,49.15
2022-09-15T09:09:30.927Z,48.98
2022-09-15T09:10:30.969Z,46.89
2022-09-15T09:11:30.908Z,50.27
2022-09-15T09:12:30.931Z,47.70
2022-09-15T09:13:35.283Z,48.50
2022-09-15T09:14:31.881Z,48.98
2022-09-15T09:15:30.917Z,44.15
2022-09-15T09:16:30.864Z,48.34
2022-09-15T09:17:30.846Z,48.02
2022-09-15T09:18:30.838Z,46.89
2022-09-15T09:19:32.303Z,50.60
2022-09-15T09:20:31.816Z,47.86
2022-09-15T09:21:30.831Z,51.56
2022-09-15T09:22:30.788Z,50.11
2022-09-15T09:23:30.783Z,49.95
2022-09-15T09:24:30.774Z,49.95
2022-09-15T09:25:30.766Z,48.34
2022-09-15T09:26:30.780Z,50.27
2022-09-15T09:27:30.738Z,48.50
2022-09-15T09:28:30.728Z,51.72
2022-09-15T09:29:30.729Z,48.18
2022-09-15T09:30:30.705Z,49.31
2022-09-15T09:31:30.741Z,46.89
2022-09-15T09:32:30.707Z,45.92
2022-09-15T09:33:30.679Z,46.89
2022-09-15T09:34:30.688Z,50.60
2022-09-15T09:35:30.660Z,48.98
2022-09-15T09:36:30.697Z,47.53
2022-09-15T09:37:30.660Z,49.95
2022-09-15T09:38:30.636Z,50.27
2022-09-15T09:39:30.622Z,52.53
2022-09-15T09:40:30.652Z,52.21
2022-09-15T09:41:30.601Z,50.92
2022-09-15T09:42:30.626Z,47.70
2022-09-15T09:43:30.650Z,49.15
2022-09-15T09:44:30.569Z,49.47
2022-09-15T09:45:30.583Z,47.21
2022-09-15T09:46:30.579Z,47.70
2022-09-15T09:47:30.584Z,46.41
2022-09-15T09:48:30.547Z,44.96
2022-09-15T09:49:30.527Z,48.50
2022-09-15T09:50:30.516Z,48.98
2022-09-15T09:51:30.500Z,50.43
2022-09-15T09:52:30.498Z,48.02
2022-09-15T09:53:30.501Z,50.11
2022-09-15T09:54:30.479Z,49.95
2022-09-15T09:55:30.461Z,46.57
2022-09-15T09:56:30.460Z,48.02
2022-09-15T09:57:30.446Z,50.76
2022-09-15T09:58:30.471Z,51.72
2022-09-15T09:59:30.427Z,53.17
2022-09-15T10:00:30.421Z,48.50
2022-09-15T10:01:30.436Z,50.92
2022-09-15T10:02:30.400Z,50.76
2022-09-15T10:03:32.975Z,50.11
2022-09-15T10:04:31.423Z,50.76
2022-09-15T10:05:30.369Z,49.15
2022-09-15T10:06:30.370Z,50.43
2022-09-15T10:07:30.349Z,49.47
2022-09-15T10:08:30.379Z,49.15
2022-09-15T10:09:33.415Z,52.85
2022-09-15T10:10:31.317Z,49.15
2022-09-15T10:11:30.307Z,50.43
2022-09-15T10:12:30.307Z,48.02
2022-09-15T10:13:30.335Z,54.62
2022-09-15T10:14:30.293Z,50.92
2022-09-15T10:15:30.276Z,51.08
2022-09-15T10:16:30.334Z,47.05
2022-09-15T10:17:30.257Z,48.66
2022-09-15T10:18:30.249Z,50.43
2022-09-15T10:19:30.251Z,49.31
2022-09-15T10:20:30.232Z,48.02
2022-09-15T10:21:30.218Z,51.56
2022-09-15T10:22:30.206Z,51.24
2022-09-15T10:23:30.198Z,50.43
2022-09-15T10:24:30.203Z,49.95
2022-09-15T10:25:49.313Z,49.31
2022-09-15T10:26:32.204Z,52.05
2022-09-15T10:27:30.175Z,50.43
2022-09-15T10:28:30.150Z,50.11
2022-09-15T10:29:30.190Z,50.76
2022-09-15T10:30:30.128Z,50.27
2022-09-15T10:31:30.204Z,49.95
2022-09-15T10:32:30.119Z,50.43
2022-09-15T10:33:30.100Z,50.11
2022-09-15T10:34:31.113Z,50.60
2022-09-15T10:35:30.092Z,48.18
2022-09-15T10:36:30.081Z,49.15
2022-09-15T10:37:30.066Z,50.43
2022-09-15T10:38:30.056Z,49.95
2022-09-15T10:39:30.102Z,51.72
2022-09-15T10:40:30.101Z,49.15
2022-09-15T10:41:30.030Z,50.11
2022-09-15T10:42:30.023Z,49.79
2022-09-15T10:43:30.010Z,51.24
2022-09-15T10:44:30.040Z,49.47
2022-09-15T10:45:30.030Z,51.24
2022-09-15T10:46:29.979Z,49.63
2022-09-15T10:47:29.971Z,53.50
2022-09-15T10:48:29.963Z,52.85
2022-09-15T10:49:29.957Z,51.72
2022-09-15T10:50:29.964Z,49.47
2022-09-15T10:51:29.933Z,51.40
2022-09-15T10:52:29.923Z,50.92
2022-09-15T10:53:29.918Z,52.05
2022-09-15T10:54:29.912Z,52.37
2022-09-15T10:55:51.229Z,52.53
2022-09-15T10:56:31.888Z,52.69
2022-09-15T10:57:29.880Z,53.66
2022-09-15T10:58:29.869Z,50.76
2022-09-15T10:59:29.857Z,54.46
2022-09-15T11:00:29.883Z,54.79
2022-09-15T11:01:29.852Z,54.30
2022-09-15T11:02:29.869Z,56.24
2022-09-15T11:03:29.818Z,52.05
2022-09-15T11:04:29.808Z,55.75
2022-09-15T11:05:29.856Z,55.59
2022-09-15T11:06:29.795Z,54.95
2022-09-15T11:07:29.790Z,54.14
2022-09-15T11:08:29.777Z,56.24
2022-09-15T11:09:29.776Z,57.52
2022-09-15T11:10:29.758Z,54.95
2022-09-15T11:11:29.767Z,59.78
2022-09-15T11:12:29.742Z,58.33
2022-09-15T11:13:29.735Z,56.72
2022-09-15T11:14:29.718Z,60.10
2022-09-15T11:15:29.709Z,59.62
2022-09-15T11:16:29.781Z,58.01
2022-09-15T11:17:29.686Z,59.14
2022-09-15T11:18:29.678Z,58.33
2022-09-15T11:19:29.669Z,57.52
2022-09-15T11:20:29.654Z,58.01
2022-09-15T11:21:29.689Z,57.69
2022-09-15T11:22:29.653Z,57.36
2022-09-15T11:23:29.629Z,56.56
2022-09-15T11:24:29.616Z,58.01
2022-09-15T11:25:29.624Z,58.97
2022-09-15T11:26:29.639Z,58.97
2022-09-15T11:27:29.588Z,59.30
2022-09-15T11:28:29.595Z,59.62
2022-09-15T11:29:29.579Z,59.46
2022-09-15T11:30:29.562Z,59.78
2022-09-15T11:31:29.625Z,60.10
2022-09-15T11:32:29.564Z,61.55
2022-09-15T11:33:29.536Z,58.65
2022-09-15T11:34:29.528Z,60.59
2022-09-15T11:35:29.518Z,60.10
2022-09-15T11:36:29.508Z,58.49
2022-09-15T11:37:29.526Z,60.26
2022-09-15T11:38:29.493Z,59.62
2022-09-15T11:39:29.497Z,59.62
2022-09-15T11:40:29.533Z,63.33
2022-09-15T11:41:29.457Z,61.39
2022-09-15T11:42:29.456Z,60.10
2022-09-15T11:43:30.460Z,62.36
2022-09-15T11:44:29.428Z,61.55
2022-09-15T11:45:29.420Z,58.97
2022-09-15T11:46:29.477Z,63.81
2022-09-15T11:47:29.424Z,63.97
2022-09-15T11:48:29.392Z,60.59
2022-09-15T11:49:29.387Z,61.07
2022-09-15T11:50:29.380Z,59.14
2022-09-15T11:51:29.367Z,60.10
2022-09-15T11:52:29.375Z,60.91
2022-09-15T11:53:29.344Z,60.59
2022-09-15T11:54:31.499Z,61.23
2022-09-15T11:55:30.326Z,63.65
2022-09-15T11:56:29.320Z,62.20
2022-09-15T11:57:29.324Z,62.20
2022-09-15T11:58:29.297Z,61.07
2022-09-15T11:59:29.287Z,60.10
2022-09-15T12:00:29.278Z,62.52
2022-09-15T12:01:29.334Z,61.55
2022-09-15T12:02:29.418Z,60.26
2022-09-15T12:03:29.250Z,61.07
2022-09-15T12:04:29.241Z,60.91
2022-09-15T12:05:29.231Z,60.59
2022-09-15T12:06:29.226Z,61.23
2022-09-15T12:07:29.273Z,61.07
2022-09-15T12:08:29.234Z,58.65
2022-09-15T12:09:29.187Z,59.46
2022-09-15T12:10:29.184Z,60.42
2022-09-15T12:11:29.175Z,60.26
2022-09-15T12:12:30.744Z,59.62
2022-09-15T12:13:29.183Z,60.42
2022-09-15T12:14:29.174Z,60.26
2022-09-15T12:15:29.158Z,60.42
2022-09-15T12:16:29.121Z,61.23
2022-09-15T12:17:29.108Z,61.07
2022-09-15T12:18:46.195Z,59.78
2022-09-15T12:19:31.108Z,58.17
2022-09-15T12:20:29.090Z,59.78
2022-09-15T12:21:29.070Z,60.91
2022-09-15T12:22:29.070Z,61.71
2022-09-15T12:23:29.116Z,59.30
2022-09-15T12:24:29.065Z,62.68
2022-09-15T12:25:29.046Z,61.07
2022-09-15T12:26:29.023Z,60.10
2022-09-15T12:27:29.015Z,60.75
2022-09-15T12:28:29.031Z,60.10
2022-09-15T12:29:29.002Z,59.62
2022-09-15T12:30:28.985Z,60.10
2022-09-15T12:31:29.032Z,60.75
2022-09-15T12:32:28.991Z,58.01
2022-09-15T12:33:28.953Z,59.46
2022-09-15T12:34:28.963Z,63.49
2022-09-15T12:35:28.937Z,63.00
2022-09-15T12:36:28.929Z,60.59
2022-09-15T12:37:28.946Z,61.07
2022-09-15T12:38:28.910Z,62.36
2022-09-15T12:39:28.918Z,62.68
2022-09-15T12:40:28.973Z,61.39
2022-09-15T12:41:28.881Z,60.91
2022-09-15T12:42:28.873Z,63.49
2022-09-15T12:43:28.854Z,60.75
2022-09-15T12:44:29.884Z,63.49
2022-09-15T12:45:28.841Z,64.13
2022-09-15T12:46:28.891Z,64.13
2022-09-15T12:47:28.834Z,59.46
2022-09-15T12:48:28.811Z,59.46
2022-09-15T12:49:28.817Z,62.36
2022-09-15T12:50:28.808Z,61.55
2022-09-15T12:51:28.812Z,61.07
2022-09-15T12:52:28.773Z,59.46